Rum Jungle, Australia
Current Conditions -  °F | °C
As of 5:00 PM on Thursday 29 Jan 2015 (Local Time) from YPDN Reporting Station
Thunderstorm Thunderstorm  
Wind Chill: 82°   Ceiling: 4500
Heat Index: 86°   Visibility: 6mi
Dew Point: 70°   Wind: 12mph
Humidity: 66%   Direction: 230°SW
Pressure: 29.68"   Gusts: NA
Location:  13°S, 131°E
Report Text: YPDN 290800Z 23010KT 9999 TS SHRA FEW022CB BKN045 BKN300 28/21 Q1005
Loading
Personal Weather Stations






























Interactive Weather Map New forecast layout! Learn more

10-Day Weather Forecast

Advertisements
Track Severe Weather on mobile